createdAt,value
2019-05-05T00:01:34.285Z,5.40
2019-05-05T00:06:39.620Z,5.20
2019-05-05T00:11:56.728Z,5.40
2019-05-05T00:17:11.949Z,5.50
2019-05-05T00:22:18.798Z,5.20
2019-05-05T00:27:25.473Z,5.20
2019-05-05T00:32:30.899Z,5.10
2019-05-05T00:37:36.441Z,5.00
2019-05-05T00:42:42.008Z,5.10
2019-05-05T00:47:54.442Z,5.10
2019-05-05T00:53:00.124Z,5.30
2019-05-05T00:58:07.883Z,5.20
2019-05-05T01:03:15.250Z,5.00
2019-05-05T01:08:24.993Z,4.90
2019-05-05T01:13:31.281Z,4.90
2019-05-05T01:18:36.701Z,5.30
2019-05-05T01:23:42.310Z,5.30
2019-05-05T01:28:47.720Z,5.40
2019-05-05T01:34:30.911Z,7.80
2019-05-05T01:39:54.273Z,5.50
2019-05-05T01:45:00.519Z,5.40
2019-05-05T01:50:17.568Z,5.20
2019-05-05T01:55:15.582Z,5.30
2019-05-05T02:00:21.076Z,5.40
2019-05-05T02:05:27.523Z,5.40
2019-05-05T02:10:35.085Z,5.50
2019-05-05T02:15:40.659Z,5.60
2019-05-05T02:21:14.542Z,5.70
2019-05-05T02:26:20.537Z,5.10
2019-05-05T02:31:55.280Z,5.10
2019-05-05T02:37:01.834Z,5.30
2019-05-05T02:42:25.019Z,5.40
2019-05-05T02:47:55.079Z,5.40
2019-05-05T02:53:04.125Z,5.40
2019-05-05T02:58:09.662Z,5.40
2019-05-05T03:03:14.750Z,5.70
2019-05-05T03:08:20.338Z,5.90
2019-05-05T03:13:26.002Z,5.90
2019-05-05T03:18:31.047Z,5.70
2019-05-05T03:23:36.416Z,5.60
2019-05-05T03:28:45.344Z,5.60
2019-05-05T03:33:50.425Z,5.50
2019-05-05T03:38:56.370Z,5.70
2019-05-05T03:44:17.138Z,5.60
2019-05-05T03:49:24.373Z,5.30
2019-05-05T03:54:30.210Z,5.60
2019-05-05T03:59:36.833Z,5.40
2019-05-05T04:04:46.630Z,5.30
2019-05-05T04:09:51.611Z,5.00
2019-05-05T04:14:57.352Z,4.60
2019-05-05T04:20:17.099Z,4.80
2019-05-05T04:25:24.392Z,4.80
2019-05-05T04:30:29.674Z,4.60
2019-05-05T04:35:35.352Z,4.40
2019-05-05T04:40:40.298Z,4.30
2019-05-05T04:45:45.348Z,4.30
2019-05-05T04:51:05.614Z,4.40
2019-05-05T04:56:10.700Z,5.30
2019-05-05T05:01:16.102Z,5.00
2019-05-05T05:06:29.272Z,5.00
2019-05-05T05:11:34.463Z,5.20
2019-05-05T05:16:39.465Z,5.60
2019-05-05T05:21:57.621Z,6.80
2019-05-05T05:26:52.114Z,5.10
2019-05-05T05:31:57.503Z,5.40
2019-05-05T05:37:04.258Z,5.40
2019-05-05T05:42:09.361Z,5.30
2019-05-05T05:47:28.747Z,5.20
2019-05-05T05:52:34.443Z,5.30
2019-05-05T05:57:39.843Z,5.20
2019-05-05T06:02:44.808Z,5.50
2019-05-05T06:07:50.230Z,6.00
2019-05-05T06:12:55.572Z,6.10
2019-05-05T06:18:01.523Z,6.80
2019-05-05T06:23:06.910Z,6.70
2019-05-05T06:28:11.886Z,6.80
2019-05-05T06:33:17.637Z,7.40
2019-05-05T06:38:24.210Z,7.70
2019-05-05T06:43:50.935Z,7.10
2019-05-05T06:48:56.231Z,8.20
2019-05-05T06:54:01.669Z,8.00
2019-05-05T06:59:06.808Z,8.30
2019-05-05T07:04:13.849Z,8.50
2019-05-05T07:09:19.939Z,9.00
2019-05-05T07:14:25.630Z,8.90
2019-05-05T07:19:31.036Z,8.90
2019-05-05T07:24:36.427Z,9.20
2019-05-05T07:29:43.607Z,9.10
2019-05-05T07:35:14.589Z,8.90
2019-05-05T07:40:20.167Z,9.60
2019-05-05T07:45:25.932Z,9.80
2019-05-05T07:50:35.645Z,9.30
2019-05-05T07:55:39.638Z,9.20
2019-05-05T08:00:45.321Z,9.40
2019-05-05T08:05:50.493Z,9.30
2019-05-05T08:10:55.738Z,9.00
2019-05-05T08:16:03.802Z,9.20
2019-05-05T08:21:09.028Z,8.80
2019-05-05T08:26:33.656Z,8.90
2019-05-05T08:31:56.123Z,8.80
2019-05-05T08:37:01.584Z,9.20
2019-05-05T08:42:06.898Z,9.00
2019-05-05T08:47:13.824Z,8.50
2019-05-05T08:52:18.960Z,8.50
2019-05-05T08:57:27.693Z,8.70
2019-05-05T09:02:34.076Z,8.40
2019-05-05T09:07:39.616Z,8.70
2019-05-05T09:12:45.592Z,9.00
2019-05-05T09:17:50.538Z,9.20
2019-05-05T09:22:57.375Z,9.20
2019-05-05T09:28:08.218Z,9.00
2019-05-05T09:33:14.203Z,9.40
2019-05-05T09:38:19.909Z,9.60
2019-05-05T09:43:25.194Z,9.50
2019-05-05T09:48:30.118Z,10.00
2019-05-05T09:53:35.098Z,9.70
2019-05-05T09:58:40.654Z,9.70
2019-05-05T10:03:45.835Z,8.80
2019-05-05T10:08:50.734Z,8.30
2019-05-05T10:13:56.086Z,8.40
2019-05-05T10:19:01.061Z,9.00
2019-05-05T10:24:27.099Z,8.80
2019-05-05T10:29:20.195Z,9.30
2019-05-05T10:34:25.658Z,9.10
2019-05-05T10:39:38.294Z,9.30
2019-05-05T10:44:44.550Z,9.50
2019-05-05T10:49:49.711Z,10.30
2019-05-05T10:54:54.948Z,10.80
2019-05-05T11:00:10.056Z,11.00
2019-05-05T11:05:07.114Z,11.00
2019-05-05T11:10:14.122Z,10.10
2019-05-05T11:15:19.426Z,6.60
2019-05-05T11:20:25.123Z,5.20
2019-05-05T11:25:30.057Z,5.00
2019-05-05T11:30:40.496Z,5.40
2019-05-05T11:35:49.849Z,5.90
2019-05-05T11:40:54.897Z,6.20
2019-05-05T11:46:00.421Z,6.60
2019-05-05T11:51:05.332Z,7.30
2019-05-05T11:56:10.734Z,8.30
2019-05-05T12:01:15.625Z,8.80
2019-05-05T12:06:20.882Z,8.80
2019-05-05T12:11:27.305Z,9.00
2019-05-05T12:16:34.638Z,9.50
2019-05-05T12:21:40.099Z,9.70
2019-05-05T12:26:59.506Z,9.70
2019-05-05T12:32:04.706Z,9.70
2019-05-05T12:37:09.858Z,9.60
2019-05-05T12:42:14.736Z,10.20
2019-05-05T12:47:56.975Z,10.10
2019-05-05T12:53:03.987Z,10.50
2019-05-05T12:58:08.641Z,10.90
2019-05-05T13:03:13.692Z,10.70
2019-05-05T13:08:18.993Z,11.30
2019-05-05T13:13:25.018Z,12.50
2019-05-05T13:18:33.937Z,11.10
2019-05-05T13:23:54.312Z,9.50
2019-05-05T13:28:59.150Z,9.40
2019-05-05T13:34:04.558Z,9.90
2019-05-05T13:39:09.681Z,10.10
2019-05-05T13:44:24.196Z,10.40
2019-05-05T13:49:38.960Z,10.50
2019-05-05T13:54:44.345Z,10.40
2019-05-05T13:59:49.513Z,10.30
2019-05-05T14:04:54.825Z,9.90
2019-05-05T14:09:59.948Z,10.00
2019-05-05T14:15:09.450Z,9.20
2019-05-05T14:20:14.854Z,9.10
2019-05-05T14:25:25.093Z,9.00
2019-05-05T14:30:37.280Z,8.10
2019-05-05T14:36:04.781Z,8.20
2019-05-05T14:41:10.042Z,8.80
2019-05-05T14:46:15.314Z,8.40
2019-05-05T14:51:20.395Z,8.60
2019-05-05T14:56:35.662Z,9.00
2019-05-05T15:01:34.432Z,9.00
2019-05-05T15:06:50.251Z,9.30
2019-05-05T15:12:20.116Z,9.50
2019-05-05T15:17:25.571Z,9.70
2019-05-05T15:22:31.014Z,10.00
2019-05-05T15:27:36.274Z,9.90
2019-05-05T15:32:41.448Z,9.60
2019-05-05T15:37:46.881Z,9.80
2019-05-05T15:42:54.322Z,9.80
2019-05-05T15:47:59.501Z,10.00
2019-05-05T15:53:04.401Z,10.30
2019-05-05T15:58:09.449Z,10.30
2019-05-05T16:03:14.345Z,10.40
2019-05-05T16:08:19.553Z,10.20
2019-05-05T16:13:25.018Z,10.20
2019-05-05T16:18:37.190Z,10.00
2019-05-05T16:23:46.828Z,9.70
2019-05-05T16:28:55.045Z,7.20
2019-05-05T16:33:58.681Z,7.00
2019-05-05T16:39:06.416Z,7.40
2019-05-05T16:44:11.652Z,8.00
2019-05-05T16:49:16.947Z,8.40
2019-05-05T16:54:28.223Z,8.70
2019-05-05T16:59:34.103Z,8.90
2019-05-05T17:04:39.016Z,9.00
2019-05-05T17:09:44.109Z,9.00
2019-05-05T17:15:00.225Z,9.10
2019-05-05T17:20:13.903Z,9.30
2019-05-05T17:25:19.171Z,9.30
2019-05-05T17:30:27.113Z,9.20
2019-05-05T17:35:33.653Z,9.00
2019-05-05T17:40:56.711Z,9.10
2019-05-05T17:46:06.381Z,9.00
2019-05-05T17:51:49.099Z,9.00
2019-05-05T17:56:55.090Z,9.00
2019-05-05T18:02:00.471Z,9.00
2019-05-05T18:07:15.645Z,9.30
2019-05-05T18:12:39.774Z,9.60
2019-05-05T18:17:45.448Z,9.70
2019-05-05T18:22:50.755Z,9.40
2019-05-05T18:27:55.973Z,9.40
2019-05-05T18:33:01.359Z,9.60
2019-05-05T18:38:06.377Z,9.30
2019-05-05T18:43:17.345Z,9.10
2019-05-05T18:58:34.656Z,8.20
2019-05-05T19:03:59.014Z,8.30
2019-05-05T19:09:06.484Z,8.30
2019-05-05T19:14:13.964Z,8.20
2019-05-05T19:19:18.778Z,8.10
2019-05-05T19:24:24.659Z,8.10
2019-05-05T19:29:29.916Z,8.10
2019-05-05T19:34:35.558Z,8.00
2019-05-05T19:39:44.116Z,8.00
2019-05-05T19:44:49.483Z,8.00
2019-05-05T19:50:01.518Z,7.90
2019-05-05T19:55:06.959Z,7.90
2019-05-05T20:00:14.678Z,8.00
2019-05-05T20:05:20.324Z,8.00
2019-05-05T20:10:25.737Z,8.00
2019-05-05T20:15:36.911Z,8.00
2019-05-05T20:20:44.378Z,8.00
2019-05-05T20:25:49.499Z,8.10
2019-05-05T20:30:54.611Z,8.10
2019-05-05T20:36:25.401Z,8.20
2019-05-05T20:41:30.474Z,8.20
2019-05-05T20:46:35.571Z,7.90
2019-05-05T20:51:40.566Z,7.90
2019-05-05T20:56:46.164Z,7.90
2019-05-05T21:01:51.838Z,7.70
2019-05-05T21:06:57.084Z,7.50
2019-05-05T21:12:04.453Z,7.50
2019-05-05T21:17:08.774Z,7.40
2019-05-05T21:22:36.294Z,7.40
2019-05-05T21:27:43.522Z,7.50
2019-05-05T21:32:48.269Z,7.30
2019-05-05T21:37:54.447Z,7.20
2019-05-05T21:42:59.451Z,7.20
2019-05-05T21:48:04.702Z,7.20
2019-05-05T21:53:15.545Z,7.20
2019-05-05T21:58:26.890Z,7.10
2019-05-05T22:03:36.935Z,7.20
2019-05-05T22:08:41.836Z,7.10
2019-05-05T22:13:46.810Z,7.20
2019-05-05T22:18:54.069Z,6.90
2019-05-05T22:24:18.881Z,6.90
2019-05-05T22:29:25.782Z,6.90
2019-05-05T22:34:31.130Z,6.80
2019-05-05T22:39:36.239Z,6.80
2019-05-05T22:44:41.410Z,7.00
2019-05-05T22:49:46.594Z,7.00
2019-05-05T22:54:52.244Z,6.80
2019-05-05T22:59:57.479Z,6.90
2019-05-05T23:05:08.398Z,6.80
2019-05-05T23:10:14.121Z,6.80
2019-05-05T23:15:19.337Z,6.70
2019-05-05T23:21:00.261Z,8.80
2019-05-05T23:26:07.674Z,6.90
2019-05-05T23:31:16.031Z,6.90
2019-05-05T23:36:21.281Z,6.80
2019-05-05T23:41:26.486Z,7.10
2019-05-05T23:46:31.660Z,7.20
2019-05-05T23:51:37.199Z,7.20
2019-05-05T23:56:44.001Z,7.20
